createdAt,value
2023-04-07T00:04:17.695Z,48.18
2023-04-07T00:09:23.512Z,49.86
2023-04-07T00:14:37.769Z,49.92
2023-04-07T00:19:44.019Z,50.68
2023-04-07T00:24:51.256Z,50.59
2023-04-07T00:29:56.062Z,50.22
2023-04-07T00:35:02.769Z,49.46
2023-04-07T00:40:07.968Z,49.47
2023-04-07T00:45:14.229Z,50.82
2023-04-07T00:50:24.351Z,48.68
2023-04-07T00:55:31.543Z,50.99
2023-04-07T01:00:40.752Z,50.97
2023-04-07T01:06:00.828Z,51.36
2023-04-07T01:11:15.248Z,49.13
2023-04-07T01:16:24.379Z,46.35
2023-04-07T01:21:35.042Z,46.74
2023-04-07T01:26:39.918Z,48.88
2023-04-07T01:31:51.422Z,46.99
2023-04-07T01:36:56.811Z,48.64
2023-04-07T01:42:05.160Z,47.31
2023-04-07T01:47:12.326Z,48.41
2023-04-07T01:52:18.582Z,49.97
2023-04-07T01:57:21.715Z,51.05
2023-04-07T02:02:28.008Z,50.89
2023-04-07T02:07:40.772Z,49.58
2023-04-07T02:12:49.757Z,48.17
2023-04-07T02:17:56.270Z,49.27
2023-04-07T02:23:01.635Z,46.12
2023-04-07T02:28:15.750Z,47.00
2023-04-07T02:33:20.329Z,45.56
2023-04-07T02:38:26.039Z,48.58
2023-04-07T02:43:31.806Z,49.84
2023-04-07T02:48:43.694Z,49.45
2023-04-07T03:16:14.762Z,52.56
2023-04-07T03:21:17.947Z,52.16
2023-04-07T03:26:22.005Z,52.22
2023-04-07T03:31:29.062Z,52.46
2023-04-07T03:36:37.498Z,52.67
2023-04-07T03:41:41.801Z,54.16
2023-04-07T03:46:48.323Z,51.53
2023-04-07T03:52:06.366Z,53.79
2023-04-07T03:57:09.713Z,54.41
2023-04-07T04:02:19.713Z,53.95
2023-04-07T04:07:23.020Z,52.99
2023-04-07T04:12:27.562Z,50.07
2023-04-07T04:17:37.111Z,50.46
2023-04-07T04:22:42.111Z,50.50
2023-04-07T04:27:50.968Z,49.69
2023-04-07T04:32:58.839Z,52.27
2023-04-07T04:38:06.206Z,53.19
2023-04-07T04:43:10.964Z,51.84
2023-04-07T04:48:18.946Z,50.95
2023-04-07T04:53:23.576Z,51.69
2023-04-07T04:58:27.769Z,50.29
2023-04-07T05:03:42.121Z,51.53
2023-04-07T05:08:53.629Z,50.75
2023-04-07T05:14:01.129Z,52.58
2023-04-07T05:19:36.118Z,51.84
2023-04-07T05:24:30.826Z,50.35
2023-04-07T05:29:35.652Z,51.95
2023-04-07T05:34:51.582Z,51.32
2023-04-07T07:35:45.794Z,34.36
2023-04-07T07:40:49.119Z,33.70
2023-04-07T07:45:52.406Z,32.19
2023-04-07T07:51:04.311Z,31.07
2023-04-07T07:56:15.021Z,29.77
2023-04-07T08:01:20.013Z,29.16
2023-04-07T08:06:28.405Z,28.07
2023-04-07T08:11:33.466Z,27.61
2023-04-07T08:16:38.390Z,27.83
2023-04-07T08:21:43.014Z,27.37
2023-04-07T08:26:50.194Z,27.54
2023-04-07T08:31:56.016Z,28.06
2023-04-07T08:37:00.760Z,27.96
2023-04-07T08:42:04.085Z,27.49
2023-04-07T08:47:08.990Z,27.40
2023-04-07T08:52:17.372Z,26.88
2023-04-07T08:57:23.818Z,26.52
2023-04-07T09:02:27.133Z,25.09
2023-04-07T09:07:35.470Z,24.60
2023-04-07T09:12:44.994Z,24.50
2023-04-07T09:17:49.492Z,24.26
2023-04-07T09:22:56.724Z,23.80
2023-04-07T09:28:04.135Z,23.78
2023-04-07T09:33:15.988Z,23.52
2023-04-07T09:38:23.017Z,22.64
2023-04-07T09:43:48.512Z,22.51
2023-04-07T09:49:05.315Z,22.51
2023-04-07T09:54:21.689Z,22.36
2023-04-07T09:59:26.899Z,22.15
2023-04-07T10:04:33.368Z,22.02
2023-04-07T10:10:20.150Z,21.84
2023-04-07T10:15:24.328Z,21.00
2023-04-07T10:20:29.164Z,20.71
2023-04-07T10:25:36.516Z,20.09
2023-04-07T10:30:40.288Z,20.24
2023-04-07T10:36:06.129Z,19.95
2023-04-07T10:41:36.634Z,19.04
2023-04-07T10:47:05.410Z,19.08
2023-04-07T10:52:26.118Z,18.86
2023-04-07T10:57:31.977Z,18.14
2023-04-07T11:02:36.087Z,17.37
2023-04-07T11:07:48.889Z,18.28
2023-04-07T11:13:07.664Z,17.09
2023-04-07T11:18:13.145Z,16.98
2023-04-07T11:23:18.230Z,16.37
2023-04-07T11:28:22.834Z,16.21
2023-04-07T11:33:28.369Z,16.67
2023-04-07T11:38:38.048Z,16.65
2023-04-07T11:43:43.554Z,17.05
2023-04-07T11:48:57.076Z,16.76
2023-04-07T11:54:00.091Z,16.25
2023-04-07T11:59:04.764Z,16.97
2023-04-07T12:04:08.139Z,16.41
2023-04-07T12:09:27.482Z,17.46
2023-04-07T12:14:32.331Z,16.53
2023-04-07T12:19:36.342Z,16.23
2023-04-07T12:24:40.097Z,16.54
2023-04-07T12:29:44.868Z,16.83
2023-04-07T12:34:48.351Z,16.42
2023-04-07T12:39:51.353Z,17.41
2023-04-07T12:44:56.916Z,18.54
2023-04-07T12:50:00.153Z,17.96
2023-04-07T12:55:03.374Z,17.29
2023-04-07T13:00:12.501Z,17.41
2023-04-07T13:05:15.850Z,17.99
2023-04-07T13:10:18.914Z,18.43
2023-04-07T13:15:23.521Z,19.46
2023-04-07T13:20:28.398Z,18.18
2023-04-07T13:25:31.706Z,18.16
2023-04-07T13:30:36.574Z,17.63
2023-04-07T13:35:39.846Z,17.92
2023-04-07T13:40:45.012Z,18.36
2023-04-07T13:45:50.037Z,18.08
2023-04-07T13:50:56.428Z,19.03
2023-04-07T13:55:59.704Z,18.49
2023-04-07T14:01:04.964Z,18.31
2023-04-07T14:06:08.271Z,18.96
2023-04-07T14:25:28.934Z,20.57
2023-04-07T14:30:34.699Z,20.81
2023-04-07T14:35:38.484Z,21.14
2023-04-07T14:40:43.338Z,21.37
2023-04-07T14:45:46.681Z,20.90
2023-04-07T14:50:56.312Z,22.20
2023-04-07T14:56:07.849Z,21.92
2023-04-07T15:01:11.198Z,21.08
2023-04-07T15:06:15.638Z,20.59
2023-04-07T15:11:20.346Z,21.03
2023-04-07T15:16:23.615Z,21.19
2023-04-07T15:21:27.081Z,21.62
2023-04-07T15:26:31.777Z,22.73
2023-04-07T15:31:35.085Z,22.10
2023-04-07T15:36:38.440Z,22.65
2023-04-07T15:41:43.777Z,22.28
2023-04-07T15:46:47.723Z,22.84
2023-04-07T15:51:51.503Z,23.62
2023-04-07T15:56:55.807Z,23.75
2023-04-07T16:01:59.019Z,25.75
2023-04-07T16:07:02.551Z,24.48
2023-04-07T16:12:07.853Z,25.11
2023-04-07T16:17:11.776Z,25.93
2023-04-07T16:22:15.119Z,25.88
2023-04-07T16:27:19.801Z,26.67
2023-04-07T16:32:23.161Z,26.58
2023-04-07T16:37:26.772Z,26.64
2023-04-07T16:42:31.449Z,26.17
2023-04-07T16:47:35.560Z,26.22
2023-04-07T16:52:38.918Z,25.45
2023-04-07T16:57:43.599Z,26.45
2023-04-07T17:02:47.056Z,26.80
2023-04-07T17:07:50.396Z,26.86
2023-04-07T17:12:56.588Z,27.29
2023-04-07T17:17:59.975Z,27.89
2023-04-07T17:23:03.263Z,28.14
2023-04-07T17:28:08.267Z,28.55
2023-04-07T17:33:13.268Z,28.92
2023-04-07T17:38:16.667Z,28.66
2023-04-07T17:43:23.652Z,29.28
2023-04-07T17:48:26.846Z,29.74
2023-04-07T17:53:31.572Z,29.83
2023-04-07T17:58:36.502Z,30.07
2023-04-07T18:03:40.318Z,29.83
2023-04-07T18:08:43.737Z,29.62
2023-04-07T18:13:48.678Z,29.67
2023-04-07T18:18:53.271Z,29.79
2023-04-07T18:23:56.611Z,30.07
2023-04-07T18:29:01.792Z,30.80
2023-04-07T18:34:04.999Z,31.01
2023-04-07T18:39:10.268Z,31.20
2023-04-07T18:44:15.128Z,31.31
2023-04-07T18:49:19.926Z,31.17
2023-04-07T18:54:27.292Z,31.52
2023-04-07T18:59:43.577Z,32.20
2023-04-07T19:04:47.902Z,36.35
2023-04-07T19:09:56.572Z,37.18
2023-04-07T19:15:01.475Z,38.87
2023-04-07T19:20:14.025Z,38.61
2023-04-07T19:25:19.219Z,39.59
2023-04-07T19:30:23.821Z,40.71
2023-04-07T19:35:28.775Z,41.12
2023-04-07T19:40:33.515Z,41.11
2023-04-07T19:45:38.198Z,39.98
2023-04-07T19:50:43.989Z,40.07
2023-04-07T19:55:49.100Z,40.24
2023-04-07T20:00:54.277Z,40.58
2023-04-07T20:05:57.488Z,41.24
2023-04-07T20:11:00.703Z,42.79
2023-04-07T20:16:05.297Z,44.01
2023-04-07T20:21:08.195Z,43.96
2023-04-07T20:26:17.478Z,43.72
2023-04-07T20:31:24.763Z,43.21
2023-04-07T20:36:28.184Z,42.71
2023-04-07T20:41:31.538Z,43.46
2023-04-07T20:46:38.436Z,45.04
2023-04-07T20:57:59.714Z,44.18
2023-04-07T21:03:04.755Z,47.26
2023-04-07T21:08:09.840Z,46.14
2023-04-07T21:13:13.070Z,44.84
2023-04-07T21:18:18.844Z,45.60
2023-04-07T21:23:22.511Z,45.50
2023-04-07T21:28:25.743Z,44.66
2023-04-07T21:33:30.428Z,45.26
2023-04-07T21:38:33.369Z,44.21
2023-04-07T21:43:36.548Z,44.36
2023-04-07T21:48:41.119Z,44.38
2023-04-07T21:53:44.047Z,45.83
2023-04-07T21:58:48.055Z,47.73
2023-04-07T22:03:53.038Z,46.98
2023-04-07T22:09:01.626Z,47.19
2023-04-07T22:14:05.206Z,45.69
2023-04-07T22:19:09.818Z,44.85
2023-04-07T22:24:13.002Z,47.38
2023-04-07T22:29:16.230Z,46.59
2023-04-07T22:34:21.067Z,44.83
2023-04-07T22:39:23.953Z,45.41
2023-04-07T22:44:27.095Z,44.67
2023-04-07T22:49:33.518Z,45.51
2023-04-07T22:54:38.112Z,47.87
2023-04-07T22:59:41.635Z,46.64
2023-04-07T23:04:46.169Z,45.58
2023-04-07T23:09:49.350Z,46.28
2023-04-07T23:14:53.672Z,48.36
2023-04-07T23:19:58.247Z,47.90
2023-04-07T23:25:01.621Z,50.29
2023-04-07T23:30:05.291Z,48.84
2023-04-07T23:35:10.983Z,49.53
2023-04-07T23:40:14.953Z,48.18
2023-04-07T23:45:20.587Z,49.41
2023-04-07T23:50:25.274Z,51.64
2023-04-07T23:55:28.440Z,50.20
